createdAt,value
2019-06-08T00:00:23.017Z,99.90
2019-06-08T00:02:52.377Z,99.90
2019-06-08T00:05:23.006Z,99.90
2019-06-08T00:07:52.511Z,99.90
2019-06-08T00:10:24.332Z,99.90
2019-06-08T00:12:52.804Z,99.90
2019-06-08T00:15:22.354Z,99.90
2019-06-08T00:17:51.857Z,99.90
2019-06-08T00:20:21.883Z,99.90
2019-06-08T00:22:51.339Z,99.90
2019-06-08T00:25:20.968Z,99.90
2019-06-08T00:27:51.667Z,99.90
2019-06-08T00:30:21.023Z,99.90
2019-06-08T00:32:50.307Z,99.90
2019-06-08T00:35:20.680Z,99.90
2019-06-08T00:37:50.246Z,99.90
2019-06-08T00:40:19.552Z,99.90
2019-06-08T00:42:48.869Z,99.90
2019-06-08T00:45:19.873Z,99.90
2019-06-08T00:47:49.407Z,99.90
2019-06-08T00:50:20.824Z,99.90
2019-06-08T00:52:50.383Z,99.90
2019-06-08T00:55:19.676Z,99.90
2019-06-08T00:57:49.059Z,99.90
2019-06-08T01:00:20.272Z,99.90
2019-06-08T01:02:49.708Z,99.90
2019-06-08T01:05:19.890Z,99.90
2019-06-08T01:07:49.507Z,99.90
2019-06-08T01:10:19.259Z,99.90
2019-06-08T01:12:48.681Z,99.90
2019-06-08T01:15:23.757Z,99.90
2019-06-08T01:18:01.983Z,99.90
2019-06-08T01:20:21.740Z,99.90
2019-06-08T01:22:51.192Z,99.90
2019-06-08T01:25:21.823Z,99.90
2019-06-08T01:27:51.272Z,99.90
2019-06-08T01:30:22.043Z,99.90
2019-06-08T01:32:51.596Z,99.90
2019-06-08T01:35:20.942Z,99.90
2019-06-08T01:37:50.235Z,99.90
2019-06-08T01:40:21.190Z,99.90
2019-06-08T01:42:50.716Z,99.90
2019-06-08T01:45:33.088Z,99.90
2019-06-08T01:48:18.766Z,99.90
2019-06-08T01:50:34.959Z,99.90
2019-06-08T01:53:04.346Z,99.90
2019-06-08T01:55:33.644Z,99.90
2019-06-08T01:58:02.907Z,99.90
2019-06-08T02:00:39.455Z,99.90
2019-06-08T02:03:03.211Z,99.90
2019-06-08T02:05:32.595Z,99.90
2019-06-08T02:08:01.854Z,99.90
2019-06-08T02:10:31.122Z,99.90
2019-06-08T02:13:00.421Z,99.90
2019-06-08T02:15:31.889Z,99.90
2019-06-08T02:18:01.030Z,99.90
2019-06-08T02:20:30.850Z,99.90
2019-06-08T02:23:00.223Z,99.90
2019-06-08T02:25:31.244Z,99.90
2019-06-08T02:28:00.649Z,99.90
2019-06-08T02:30:34.148Z,99.90
2019-06-08T02:33:02.881Z,99.90
2019-06-08T02:35:32.780Z,99.90
2019-06-08T02:38:02.695Z,99.90
2019-06-08T02:40:33.045Z,99.90
2019-06-08T02:43:02.992Z,99.90
2019-06-08T02:45:34.038Z,99.90
2019-06-08T02:48:03.306Z,99.90
2019-06-08T02:50:51.012Z,99.90
2019-06-08T02:53:20.832Z,99.90
2019-06-08T02:55:50.819Z,99.90
2019-06-08T02:58:20.542Z,99.90
2019-06-08T03:00:52.056Z,99.90
2019-06-08T03:03:21.352Z,99.90
2019-06-08T03:05:51.526Z,99.90
2019-06-08T03:08:21.910Z,99.90
2019-06-08T03:10:54.737Z,99.90
2019-06-08T03:13:24.941Z,99.90
2019-06-08T03:15:54.519Z,99.90
2019-06-08T03:18:23.817Z,99.90
2019-06-08T03:20:53.140Z,99.90
2019-06-08T03:23:22.395Z,99.90
2019-06-08T03:25:53.337Z,99.90
2019-06-08T03:28:22.755Z,99.90
2019-06-08T03:30:54.303Z,99.90
2019-06-08T03:33:23.101Z,99.90
2019-06-08T03:35:57.546Z,99.90
2019-06-08T03:38:23.531Z,99.90
2019-06-08T03:40:52.780Z,99.90
2019-06-08T03:43:22.059Z,99.90
2019-06-08T03:45:51.375Z,99.90
2019-06-08T03:48:20.652Z,99.90
2019-06-08T03:50:49.963Z,99.90
2019-06-08T03:53:19.285Z,99.90
2019-06-08T03:55:48.565Z,99.90
2019-06-08T03:58:17.904Z,99.90
2019-06-08T04:00:49.043Z,99.90
2019-06-08T04:03:18.220Z,99.90
2019-06-08T04:05:47.497Z,99.90
2019-06-08T04:08:17.231Z,99.90
2019-06-08T04:10:46.940Z,99.90
2019-06-08T04:13:16.461Z,99.90
2019-06-08T04:15:46.883Z,99.90
2019-06-08T04:18:16.442Z,99.90
2019-06-08T04:20:48.454Z,99.90
2019-06-08T04:23:16.752Z,99.90
2019-06-08T04:25:47.770Z,99.90
2019-06-08T04:28:17.043Z,99.90
2019-06-08T04:30:49.170Z,99.90
2019-06-08T04:33:17.357Z,99.90
2019-06-08T04:35:47.314Z,99.90
2019-06-08T04:38:16.800Z,99.90
2019-06-08T04:40:48.077Z,99.90
2019-06-08T04:43:17.276Z,99.90
2019-06-08T04:45:48.063Z,99.90
2019-06-08T04:48:17.576Z,99.90
2019-06-08T04:50:47.996Z,99.90
2019-06-08T04:53:17.869Z,99.90
2019-06-08T04:55:47.709Z,99.90
2019-06-08T04:58:18.172Z,99.90
2019-06-08T05:00:48.740Z,99.90
2019-06-08T05:03:18.508Z,99.90
2019-06-08T05:05:49.470Z,99.90
2019-06-08T05:08:18.865Z,99.90
2019-06-08T05:10:49.665Z,99.90
2019-06-08T05:13:19.278Z,99.90
2019-06-08T05:15:50.338Z,99.90
2019-06-08T05:18:19.806Z,99.90
2019-06-08T05:20:51.185Z,99.90
2019-06-08T05:23:20.106Z,99.90
2019-06-08T05:25:49.437Z,99.90
2019-06-08T05:28:18.796Z,99.90
2019-06-08T05:30:49.452Z,99.90
2019-06-08T05:33:18.999Z,99.90
2019-06-08T05:35:49.697Z,99.90
2019-06-08T05:38:19.170Z,99.90
2019-06-08T05:40:49.736Z,99.90
2019-06-08T05:43:19.355Z,99.90
2019-06-08T05:45:49.827Z,99.90
2019-06-08T05:48:19.357Z,99.90
2019-06-08T05:51:00.541Z,99.90
2019-06-08T05:53:19.738Z,99.90
2019-06-08T05:55:50.140Z,99.90
2019-06-08T05:58:19.650Z,99.90
2019-06-08T06:00:50.471Z,99.90
2019-06-08T06:03:20.157Z,99.90
2019-06-08T06:05:50.660Z,99.90
2019-06-08T06:08:20.166Z,99.90
2019-06-08T06:10:49.465Z,99.90
2019-06-08T06:13:18.764Z,99.90
2019-06-08T06:15:49.048Z,99.90
2019-06-08T06:18:18.476Z,99.90
2019-06-08T06:20:47.839Z,99.90
2019-06-08T06:23:17.106Z,99.90
2019-06-08T06:25:47.495Z,99.90
2019-06-08T06:28:16.937Z,99.90
2019-06-08T06:30:46.592Z,99.90
2019-06-08T06:33:16.406Z,99.90
2019-06-08T06:35:46.024Z,99.90
2019-06-08T06:38:15.338Z,99.90
2019-06-08T06:40:45.819Z,99.90
2019-06-08T06:43:15.263Z,99.90
2019-06-08T06:45:45.978Z,99.90
2019-06-08T06:48:15.406Z,99.90
2019-06-08T06:50:44.717Z,99.90
2019-06-08T06:53:13.984Z,99.90
2019-06-08T06:55:43.302Z,99.90
2019-06-08T06:58:12.569Z,99.90
2019-06-08T07:00:43.174Z,99.90
2019-06-08T07:03:12.621Z,99.90
2019-06-08T07:05:41.900Z,99.90
2019-06-08T07:08:11.191Z,99.90
2019-06-08T07:10:40.500Z,99.90
2019-06-08T07:13:09.809Z,99.90
2019-06-08T07:15:41.778Z,99.90
2019-06-08T07:18:10.143Z,99.90
2019-06-08T07:20:39.454Z,99.90
2019-06-08T07:23:08.785Z,99.90
2019-06-08T07:25:38.074Z,99.90
2019-06-08T07:28:07.386Z,99.90
2019-06-08T07:30:36.688Z,99.90
2019-06-08T07:33:06.007Z,99.90
2019-06-08T07:35:35.323Z,99.90
2019-06-08T07:38:04.613Z,99.90
2019-06-08T07:40:34.002Z,99.90
2019-06-08T07:43:03.308Z,99.90
2019-06-08T07:45:32.620Z,99.90
2019-06-08T07:48:01.928Z,99.90
2019-06-08T07:50:31.297Z,99.90
2019-06-08T07:53:00.558Z,99.90
2019-06-08T07:55:29.855Z,99.90
2019-06-08T07:58:00.348Z,99.90
2019-06-08T08:00:29.917Z,99.90
2019-06-08T08:02:59.214Z,99.90
2019-06-08T08:05:28.520Z,99.90
2019-06-08T08:07:59.015Z,99.90
2019-06-08T08:10:28.411Z,99.90
2019-06-08T08:12:58.831Z,99.90
2019-06-08T08:15:28.344Z,99.90
2019-06-08T08:17:57.767Z,99.90
2019-06-08T08:20:27.105Z,99.90
2019-06-08T08:23:02.008Z,99.90
2019-06-08T08:25:28.137Z,99.90
2019-06-08T08:27:59.330Z,99.90
2019-06-08T08:30:28.643Z,99.90
2019-06-08T08:33:01.645Z,99.90
2019-06-08T08:35:29.037Z,99.90
2019-06-08T08:38:02.341Z,99.90
2019-06-08T08:40:29.331Z,99.90
2019-06-08T08:43:00.342Z,99.90
2019-06-08T08:45:29.741Z,99.90
2019-06-08T08:48:14.438Z,99.90
2019-06-08T08:50:30.056Z,99.90
2019-06-08T08:53:01.083Z,99.90
2019-06-08T08:55:30.368Z,99.90
2019-06-08T08:58:01.786Z,99.90
2019-06-08T09:00:30.743Z,99.90
2019-06-08T09:03:15.070Z,99.90
2019-06-08T09:05:31.098Z,99.90
2019-06-08T09:08:02.571Z,99.90
2019-06-08T09:10:31.427Z,99.90
2019-06-08T09:13:04.423Z,99.90
2019-06-08T09:15:31.790Z,99.90
2019-06-08T09:18:03.661Z,99.90
2019-06-08T09:20:32.125Z,99.90
2019-06-08T09:23:10.520Z,99.90
2019-06-08T09:25:32.656Z,99.90
2019-06-08T09:28:04.454Z,99.90
2019-06-08T09:30:32.975Z,99.90
2019-06-08T09:33:02.971Z,99.90
2019-06-08T09:35:33.299Z,99.90
2019-06-08T09:38:04.868Z,99.90
2019-06-08T09:40:33.661Z,99.90
2019-06-08T09:43:08.547Z,99.90
2019-06-08T09:45:34.079Z,99.90
2019-06-08T09:48:05.287Z,99.90
2019-06-08T09:50:34.517Z,99.90
2019-06-08T09:53:22.329Z,99.90
2019-06-08T09:55:34.861Z,99.90
2019-06-08T09:58:08.155Z,99.90
2019-06-08T10:00:37.670Z,99.90
2019-06-08T10:03:09.187Z,99.90
2019-06-08T10:05:38.826Z,99.30
2019-06-08T10:08:09.484Z,98.70
2019-06-08T10:10:39.236Z,97.80
2019-06-08T10:13:09.745Z,96.90
2019-06-08T10:15:39.458Z,97.00
2019-06-08T10:18:08.810Z,96.70
2019-06-08T10:20:38.549Z,97.00
2019-06-08T10:23:26.807Z,97.20
2019-06-08T10:25:38.973Z,97.10
2019-06-08T10:28:13.653Z,97.10
2019-06-08T10:30:40.162Z,96.90
2019-06-08T10:33:10.071Z,96.60
2019-06-08T10:35:39.635Z,96.50
2019-06-08T10:38:11.919Z,97.10
2019-06-08T10:41:05.621Z,97.00
2019-06-08T10:43:30.497Z,97.00
2019-06-08T10:46:03.054Z,97.20
2019-06-08T10:48:31.120Z,96.80
2019-06-08T10:51:02.335Z,97.00
2019-06-08T10:53:45.178Z,97.40
2019-06-08T10:56:03.436Z,97.50
2019-06-08T10:58:33.508Z,97.40
2019-06-08T11:01:05.780Z,97.30
2019-06-08T11:03:33.884Z,96.80
2019-06-08T11:06:04.454Z,96.60
2019-06-08T11:08:34.241Z,96.80
2019-06-08T11:11:04.953Z,96.70
2019-06-08T11:13:34.601Z,96.50
2019-06-08T11:16:05.416Z,95.90
2019-06-08T11:18:35.040Z,96.00
2019-06-08T11:21:05.983Z,96.10
2019-06-08T11:23:35.369Z,96.50
2019-06-08T11:26:13.713Z,95.40
2019-06-08T11:28:38.148Z,95.30
2019-06-08T11:31:12.078Z,94.40
2019-06-08T11:33:39.031Z,94.10
2019-06-08T11:36:13.771Z,94.50
2019-06-08T11:38:39.557Z,94.30
2019-06-08T11:41:12.154Z,93.30
2019-06-08T11:43:40.174Z,92.80
2019-06-08T11:46:10.615Z,91.80
2019-06-08T11:48:41.540Z,92.30
2019-06-08T11:51:13.053Z,91.70
2019-06-08T11:53:42.180Z,90.90
2019-06-08T11:56:13.325Z,90.30
2019-06-08T11:58:43.549Z,90.70
2019-06-08T12:01:15.168Z,90.90
2019-06-08T12:03:44.004Z,90.90
2019-06-08T12:06:14.533Z,90.60
2019-06-08T12:08:43.908Z,90.30
2019-06-08T12:11:18.761Z,90.10
2019-06-08T12:13:44.253Z,90.60
2019-06-08T12:16:15.844Z,90.00
2019-06-08T12:18:44.570Z,90.50
2019-06-08T12:21:14.619Z,90.90
2019-06-08T12:23:44.206Z,91.50
2019-06-08T12:26:14.557Z,91.80
2019-06-08T12:28:43.993Z,91.80
2019-06-08T12:31:17.119Z,92.30
2019-06-08T12:33:44.314Z,92.10
2019-06-08T12:36:15.553Z,92.40
2019-06-08T12:38:44.622Z,92.90
2019-06-08T12:41:14.430Z,92.40
2019-06-08T12:43:45.055Z,92.70
2019-06-08T12:46:15.148Z,92.60
2019-06-08T12:48:45.491Z,93.00
2019-06-08T12:51:16.433Z,92.90
2019-06-08T12:53:45.843Z,92.70
2019-06-08T12:56:18.679Z,92.10
2019-06-08T12:58:47.614Z,90.90
2019-06-08T13:01:17.090Z,90.90
2019-06-08T13:03:48.424Z,91.10
2019-06-08T13:06:18.338Z,90.40
2019-06-08T13:08:47.934Z,90.30
2019-06-08T13:11:18.976Z,90.50
2019-06-08T13:13:48.874Z,90.00
2019-06-08T13:16:23.748Z,87.50
2019-06-08T13:18:49.563Z,86.40
2019-06-08T13:21:31.572Z,85.50
2019-06-08T13:23:49.939Z,85.00
2019-06-08T13:26:24.728Z,83.20
2019-06-08T13:28:50.290Z,82.60
2019-06-08T13:31:24.154Z,81.00
2019-06-08T13:33:50.564Z,79.70
2019-06-08T13:36:26.160Z,79.30
2019-06-08T13:38:50.943Z,78.10
2019-06-08T13:41:25.749Z,78.70
2019-06-08T13:43:51.353Z,78.20
2019-06-08T13:46:22.335Z,79.80
2019-06-08T13:48:51.701Z,79.50
2019-06-08T13:51:22.530Z,78.00
2019-06-08T13:53:52.039Z,77.00
2019-06-08T13:56:22.718Z,75.10
2019-06-08T13:58:52.397Z,75.00
2019-06-08T14:01:21.789Z,75.30
2019-06-08T14:03:52.442Z,76.20
2019-06-08T14:06:23.326Z,76.80
2019-06-08T14:08:52.972Z,74.90
2019-06-08T14:11:23.576Z,74.80
2019-06-08T14:13:53.665Z,74.00
2019-06-08T14:16:24.810Z,73.50
2019-06-08T14:18:54.052Z,72.40
2019-06-08T14:21:32.849Z,71.60
2019-06-08T14:23:54.449Z,71.60
2019-06-08T14:26:24.742Z,72.80
2019-06-08T14:28:54.894Z,71.90
2019-06-08T14:31:25.617Z,70.30
2019-06-08T14:33:55.249Z,70.70
2019-06-08T14:36:25.857Z,71.00
2019-06-08T14:38:55.644Z,70.80
2019-06-08T14:41:24.943Z,69.30
2019-06-08T14:43:54.261Z,68.70
2019-06-08T14:46:24.384Z,68.30
2019-06-08T14:48:53.861Z,67.60
2019-06-08T14:51:27.623Z,68.10
2019-06-08T14:53:58.264Z,68.00
2019-06-08T14:56:29.675Z,68.90
2019-06-08T14:59:00.387Z,66.50
2019-06-08T15:01:30.275Z,67.00
2019-06-08T15:04:00.343Z,67.60
2019-06-08T15:06:33.980Z,67.60
2019-06-08T15:09:00.724Z,66.20
2019-06-08T15:11:34.551Z,66.00
2019-06-08T15:14:01.114Z,66.10
2019-06-08T15:16:32.675Z,64.50
2019-06-08T15:19:01.421Z,65.50
2019-06-08T15:21:32.978Z,65.80
2019-06-08T15:24:01.743Z,66.30
2019-06-08T15:26:39.896Z,66.10
2019-06-08T15:29:02.147Z,65.50
2019-06-08T15:31:32.661Z,65.70
2019-06-08T15:34:02.111Z,65.40
2019-06-08T15:36:32.613Z,64.90
2019-06-08T15:39:02.198Z,65.60
2019-06-08T15:41:32.733Z,66.30
2019-06-08T15:44:02.337Z,65.70
2019-06-08T15:46:32.557Z,64.50
2019-06-08T15:49:02.048Z,64.20
2019-06-08T15:51:35.539Z,64.80
2019-06-08T15:54:02.443Z,65.40
2019-06-08T15:56:41.530Z,65.90
2019-06-08T15:59:02.790Z,65.70
2019-06-08T16:01:33.471Z,65.70
2019-06-08T16:04:04.112Z,66.40
2019-06-08T16:06:33.933Z,67.80
2019-06-08T16:09:03.508Z,70.40
2019-06-08T16:11:32.849Z,80.90
2019-06-08T16:14:02.146Z,82.40
2019-06-08T16:16:31.482Z,84.00
2019-06-08T16:19:00.828Z,85.80
2019-06-08T16:21:31.637Z,86.00
2019-06-08T16:24:01.313Z,86.70
2019-06-08T16:26:31.708Z,85.70
2019-06-08T16:29:01.159Z,84.80
2019-06-08T16:31:31.094Z,85.70
2019-06-08T16:34:00.525Z,85.40
2019-06-08T16:36:29.862Z,84.70
2019-06-08T16:38:59.181Z,85.80
2019-06-08T16:41:29.599Z,86.50
2019-06-08T16:43:59.151Z,87.90
2019-06-08T16:46:28.489Z,88.20
2019-06-08T16:48:58.283Z,90.00
2019-06-08T16:51:27.756Z,90.70
2019-06-08T16:53:57.059Z,91.30
2019-06-08T16:56:26.350Z,91.20
2019-06-08T16:58:56.819Z,92.10
2019-06-08T17:01:26.236Z,91.50
2019-06-08T17:03:55.570Z,91.10
2019-06-08T17:06:24.877Z,90.20
2019-06-08T17:08:54.339Z,90.00
2019-06-08T17:11:23.662Z,89.90
2019-06-08T17:13:53.031Z,90.00
2019-06-08T17:16:22.420Z,90.20
2019-06-08T17:18:51.687Z,91.00
2019-06-08T17:21:21.024Z,91.70
2019-06-08T17:23:50.353Z,92.80
2019-06-08T17:26:19.685Z,94.30
2019-06-08T17:28:49.062Z,95.70
2019-06-08T17:31:18.402Z,97.30
2019-06-08T17:33:47.714Z,99.10
2019-06-08T17:36:17.051Z,98.90
2019-06-08T17:38:46.369Z,98.20
2019-06-08T17:41:15.634Z,96.30
2019-06-08T17:43:44.982Z,94.40
2019-06-08T17:46:14.427Z,91.80
2019-06-08T17:48:43.724Z,89.20
2019-06-08T17:51:13.067Z,83.00
2019-06-08T17:53:43.307Z,79.70
2019-06-08T17:56:13.057Z,78.20
2019-06-08T17:58:43.402Z,75.20
2019-06-08T18:01:12.852Z,72.50
2019-06-08T18:03:42.764Z,71.40
2019-06-08T18:06:13.167Z,71.50
2019-06-08T18:08:43.760Z,72.00
2019-06-08T18:11:13.520Z,72.90
2019-06-08T18:13:44.099Z,71.80
2019-06-08T18:16:13.873Z,71.90
2019-06-08T18:18:44.302Z,72.30
2019-06-08T18:21:14.185Z,73.10
2019-06-08T18:23:44.151Z,74.20
2019-06-08T18:26:17.098Z,75.60
2019-06-08T18:28:48.340Z,77.20
2019-06-08T18:31:18.096Z,79.00
2019-06-08T18:33:50.126Z,82.70
2019-06-08T18:36:18.735Z,86.70
2019-06-08T18:38:48.648Z,89.50
2019-06-08T18:41:18.107Z,91.20
2019-06-08T18:43:48.946Z,92.30
2019-06-08T18:46:18.567Z,92.00
2019-06-08T18:48:49.323Z,92.70
2019-06-08T18:51:19.133Z,92.80
2019-06-08T18:54:06.632Z,93.20
2019-06-08T18:56:19.478Z,93.50
2019-06-08T18:58:53.551Z,93.70
2019-06-08T19:01:22.834Z,94.90
2019-06-08T19:03:52.910Z,96.20
2019-06-08T19:06:22.014Z,97.30
2019-06-08T19:08:51.851Z,98.60
2019-06-08T19:11:21.236Z,99.90
2019-06-08T19:13:52.475Z,99.90
2019-06-08T19:16:22.058Z,99.90
2019-06-08T19:18:52.759Z,99.90
2019-06-08T19:21:22.418Z,99.90
2019-06-08T19:23:51.718Z,99.90
2019-06-08T19:26:21.068Z,99.90
2019-06-08T19:28:54.065Z,99.90
2019-06-08T19:31:21.518Z,99.90
2019-06-08T19:33:53.252Z,99.90
2019-06-08T19:36:21.953Z,99.90
2019-06-08T19:38:54.501Z,99.90
2019-06-08T19:41:22.339Z,99.90
2019-06-08T19:43:54.653Z,99.90
2019-06-08T19:46:22.704Z,99.90
2019-06-08T19:48:54.861Z,99.90
2019-06-08T19:51:23.050Z,99.90
2019-06-08T19:53:54.863Z,99.90
2019-06-08T19:56:23.465Z,99.90
2019-06-08T19:59:01.877Z,99.90
2019-06-08T20:01:23.921Z,99.90
2019-06-08T20:03:53.356Z,99.90
2019-06-08T20:06:22.706Z,99.90
2019-06-08T20:08:51.984Z,99.90
2019-06-08T20:11:21.315Z,99.90
2019-06-08T20:13:51.756Z,99.90
2019-06-08T20:16:21.329Z,99.90
2019-06-08T20:18:51.697Z,99.90
2019-06-08T20:21:21.759Z,99.90
2019-06-08T20:23:51.096Z,99.90
2019-06-08T20:26:20.426Z,99.90
2019-06-08T20:28:54.174Z,99.90
2019-06-08T20:31:20.938Z,99.90
2019-06-08T20:33:51.962Z,99.90
2019-06-08T20:36:21.316Z,99.90
2019-06-08T20:38:50.852Z,99.90
2019-06-08T20:41:20.632Z,99.90
2019-06-08T20:43:51.935Z,99.90
2019-06-08T20:46:21.067Z,99.90
2019-06-08T20:48:51.725Z,99.90
2019-06-08T20:51:21.416Z,99.90
2019-06-08T20:53:52.101Z,99.90
2019-06-08T20:56:21.953Z,99.90
2019-06-08T20:58:52.508Z,99.90
2019-06-08T21:01:22.219Z,99.90
2019-06-08T21:03:52.706Z,99.90
2019-06-08T21:06:22.244Z,99.90
2019-06-08T21:08:53.135Z,99.90
2019-06-08T21:11:22.638Z,99.90
2019-06-08T21:13:52.817Z,99.90
2019-06-08T21:16:23.019Z,99.90
2019-06-08T21:18:52.971Z,99.90
2019-06-08T21:21:22.382Z,99.90
2019-06-08T21:23:54.316Z,99.90
2019-06-08T21:26:22.787Z,99.90
2019-06-08T21:28:54.107Z,99.90
2019-06-08T21:31:23.290Z,99.90
2019-06-08T21:33:54.044Z,99.90
2019-06-08T21:36:23.843Z,99.90
2019-06-08T21:38:55.308Z,99.90
2019-06-08T21:41:24.249Z,99.90
2019-06-08T21:43:55.615Z,99.90
2019-06-08T21:46:24.738Z,99.90
2019-06-08T21:48:54.587Z,99.90
2019-06-08T21:51:26.154Z,99.90
2019-06-08T21:53:56.823Z,99.90
2019-06-08T21:56:27.621Z,99.90
2019-06-08T21:58:59.668Z,99.90
2019-06-08T22:01:31.600Z,99.90
2019-06-08T22:04:02.249Z,99.90
2019-06-08T22:06:31.759Z,99.90
2019-06-08T22:09:01.613Z,99.90
2019-06-08T22:11:32.228Z,99.90
2019-06-08T22:14:01.547Z,99.90
2019-06-08T22:16:30.865Z,99.90
2019-06-08T22:19:00.950Z,99.90
2019-06-08T22:21:30.470Z,99.90
2019-06-08T22:24:00.890Z,99.90
2019-06-08T22:26:30.230Z,99.90
2019-06-08T22:29:01.001Z,99.90
2019-06-08T22:31:30.556Z,99.90
2019-06-08T22:34:02.087Z,99.90
2019-06-08T22:36:30.947Z,99.90
2019-06-08T22:39:01.025Z,99.90
2019-06-08T22:41:31.288Z,99.90
2019-06-08T22:44:00.963Z,99.90
2019-06-08T22:46:30.453Z,99.90
2019-06-08T22:49:02.238Z,99.90
2019-06-08T22:51:31.006Z,99.90
2019-06-08T22:54:01.142Z,99.90
2019-06-08T22:56:31.362Z,99.90
2019-06-08T22:59:05.588Z,99.90
2019-06-08T23:01:32.946Z,99.90
2019-06-08T23:04:04.308Z,99.90
2019-06-08T23:06:33.315Z,99.90
2019-06-08T23:09:04.073Z,99.90
2019-06-08T23:11:33.693Z,99.90
2019-06-08T23:14:05.012Z,99.90
2019-06-08T23:16:33.954Z,99.90
2019-06-08T23:19:03.313Z,99.90
2019-06-08T23:21:32.637Z,99.90
2019-06-08T23:24:02.896Z,99.90
2019-06-08T23:26:32.955Z,99.90
2019-06-08T23:29:02.399Z,99.90
2019-06-08T23:31:31.719Z,99.90
2019-06-08T23:34:03.927Z,99.90
2019-06-08T23:36:50.726Z,99.90
2019-06-08T23:39:05.111Z,99.90
2019-06-08T23:41:34.561Z,99.90
2019-06-08T23:44:03.857Z,99.90
2019-06-08T23:46:33.232Z,99.90
2019-06-08T23:49:03.918Z,99.90
2019-06-08T23:51:33.690Z,99.90
2019-06-08T23:54:04.269Z,99.90
2019-06-08T23:56:33.989Z,99.90
2019-06-08T23:59:03.290Z,99.90
